• Join FlightAware (Why Join?)
  • Login
  • US Flag 
01:52PM EDT


 

Airport Tracker/Info


-or-


 

Live Flight TrackerFlight Track Log ✈ LBQ652 ✈ 26-Apr-2013 ✈ KRDG - KLUK

Flight Track Log - Related Links

Times and Time Zones

All times are in EDT time to prevent confusion due to time zone crossing. See the LBQ652 flight status page for this flight to view local times or setup timezone preferences in your user account.

Time Position Orientation Groundspeed Altitude Reporting Facility
EDT Latitude Longitude Course Direction KTS MPH feet Rate Location/Type
11:38PM 40.4164 -76.0950 259° West 214 246 3,900  Level New York Center
11:39PM 40.4403 -76.1706 293° West 252 290 5,300 1,860 Climbing New York Center
11:40PM 40.4292 -76.2758 262° West 259 298 7,700 2,040 Climbing New York Center
11:41PM 40.4186 -76.3625 261° West 274 315 9,600 1,980 Climbing New York Center
11:42PM 40.4058 -76.4567 260° West 274 315 11,600 2,100 Climbing New York Center
11:43PM 40.5333 -76.7113 270° West  Level FlightAware Approximate
11:43PM 40.3922 -76.5647 261° West 279 321 13,800  Level New York Center
11:44PM 40.5267 -76.8101 259° West  Level FlightAware Approximate
11:44PM 40.3792 -76.6644 260° West 279 321 15,700  Level New York Center
11:45PM 40.3656 -76.7642 260° West 279 321 17,600 1,500 Climbing New York Center
11:46PM 40.3547 -76.8558 261° West 279 321 18,800 1,560 Climbing New York Center
11:47PM 40.3411 -76.9581 260° West 285 328 20,700 1,740 Climbing New York Center
11:48PM 40.3275 -77.0578 260° West 285 328 22,300 1,440 Climbing New York Center
11:49PM 40.3136 -77.1600 260° West 290 334 23,700 1,500 Climbing New York Center
11:52PM 40.2778 -77.4261 260° West 291 335 27,500 1,560 Climbing Cleveland Center
11:53PM 40.2661 -77.5300 262° West 291 335 29,100 1,860 Climbing Cleveland Center
11:54PM 40.2539 -77.6258 261° West 285 328 31,300 2,040 Climbing Cleveland Center
11:55PM 40.2414 -77.7108 259° West 265 305 33,200 1,320 Climbing Cleveland Center
11:56PM 40.2289 -77.7903 258° West 245 282 34,000 360 Climbing Cleveland Center
11:57PM 40.2186 -77.8831 262° West 240 276 34,000  Level Cleveland Center
11:58PM 40.2000 -77.9844 257° West 261 300 34,000  Level Cleveland Center
11:59PM 40.1878 -78.0828 261° West 274 315 34,000  Level Cleveland Center
12:00AM 40.1711 -78.1839 258° West 282 325 34,000  Level Cleveland Center
12:01AM 40.1567 -78.2875 260° West 287 330 34,000  Level Cleveland Center
12:02AM 40.1439 -78.3886 261° West 287 330 34,000  Level Cleveland Center
12:03AM 40.1292 -78.4894 259° West 287 330 34,000  Level Cleveland Center
12:04AM 40.1144 -78.5906 259° West 287 330 34,000  Level Cleveland Center
12:05AM 40.0994 -78.6914 259° West 287 330 34,000  Level Cleveland Center
12:06AM 40.0864 -78.7919 260° West 287 330 34,000  Level Cleveland Center
12:07AM 40.0714 -78.8956 259° West 287 330 34,000  Level Cleveland Center
12:08AM 40.0561 -78.9856 258° West 292 336 34,000  Level Cleveland Center
12:09AM 40.0428 -79.0969 261° West 292 336 34,000  Level Cleveland Center
12:10AM 40.0275 -79.2003 259° West 292 336 34,000  Level Cleveland Center
12:11AM 40.0119 -79.3008 259° West 292 336 34,000  Level Cleveland Center
12:12AM 39.9964 -79.4042 259° West 292 336 34,000  Level Cleveland Center
12:13AM 39.9808 -79.5047 259° West 292 336 34,000  Level Cleveland Center
12:14AM 39.9650 -79.6053 258° West 297 342 34,000  Level Cleveland Center
12:15AM 39.9511 -79.7056 260° West 292 336 34,000  Level Cleveland Center
12:16AM 39.9333 -79.8061 257° West 292 336 34,000  Level Cleveland Center
12:17AM 39.9172 -79.9064 258° West 292 336 34,000  Level Cleveland Center
12:18AM 39.9031 -80.0039 259° West 287 330 34,000  Level Cleveland Center
12:19AM 39.8869 -80.1042 258° West 287 330 34,000  Level Cleveland Center
12:20AM 39.8706 -80.2017 258° West 282 325 34,000  Level Cleveland Center
12:21AM 39.8542 -80.3019 258° West 282 325 34,000  Level Cleveland Center
12:22AM 39.8378 -80.4019 258° West 282 325 34,000  Level Cleveland Center
12:24AM 39.7958 -80.6331 257° West 280 322 34,000  Level Indianapolis Center
12:25AM 39.7800 -80.7336 258° West 282 325 34,000  Level Indianapolis Center
12:26AM 39.7625 -80.8336 257° West 284 327 34,000  Level Indianapolis Center
12:27AM 39.7472 -80.9342 259° West 284 327 34,000  Level Indianapolis Center
12:28AM 39.7303 -81.0342 258° West 286 329 34,000  Level Indianapolis Center
12:29AM 39.7131 -81.1328 257° West 281 323 34,000  Level Indianapolis Center
12:30AM 39.6961 -81.2344 258° West 286 329 34,000  Level Indianapolis Center
12:31AM 39.6789 -81.3336 257° West 282 325 34,000  Level Indianapolis Center
12:32AM 39.6619 -81.4331 258° West 283 326 34,000  Level Indianapolis Center
12:33AM 39.6442 -81.5361 257° West 291 335 34,000  Level Indianapolis Center
12:34AM 39.6264 -81.6367 257° West 287 330 34,000  Level Indianapolis Center
12:35AM 39.6092 -81.7353 257° West 284 327 34,000  Level Indianapolis Center
12:36AM 39.5906 -81.8364 257° West 288 331 34,000  Level Indianapolis Center
12:37AM 39.5739 -81.9364 258° West 286 329 34,000  Level Indianapolis Center
12:38AM 39.5556 -82.0378 257° West 288 331 34,000  Level Indianapolis Center
12:39AM 39.5361 -82.1442 257° West 288 331 34,000  Level Indianapolis Center
12:40AM 39.5189 -82.2469 258° West 289 333 34,000  Level Indianapolis Center
12:41AM 39.4994 -82.3494 256° West 290 334 34,000  Level Indianapolis Center
12:42AM 39.4806 -82.4514 257° West 289 333 34,000  Level Indianapolis Center
12:43AM 39.4619 -82.5533 257° West 289 333 34,000  Level Indianapolis Center
12:44AM 39.4433 -82.6556 257° West 288 331 34,000 -480 Level Indianapolis Center
12:45AM 39.4244 -82.7589 257° West 293 337 33,100 -960 Descending Indianapolis Center
12:46AM 39.4036 -82.8658 256° West 302 348 32,100 -1,020 Descending Indianapolis Center
12:47AM 39.3836 -82.9736 257° West 305 351 31,100 -1,020 Descending Indianapolis Center
12:48AM 39.3625 -83.0856 256° West 314 361 30,100 -1,020 Descending Indianapolis Center
12:49AM 39.3414 -83.2011 257° West 325 374 29,100 -2,040 Descending Indianapolis Center
12:50AM 39.3194 -83.3133 256° West 321 369 26,100 -3,300 Descending Indianapolis Center
12:51AM 39.2958 -83.4364 256° West 344 396 22,500 -3,480 Descending Indianapolis Center
12:52AM 39.2728 -83.5533 256° West 333 383 19,100 -2,820 Descending Indianapolis Center
12:53AM 39.2547 -83.6475 256° West 322 371 16,900 -2,700 Descending Indianapolis Center
12:54AM 39.2333 -83.7592 256° West 318 366 13,800 -2,820 Descending Indianapolis Center
12:55AM 39.2117 -83.8719 256° West 320 368 11,300 -2,580 Descending Indianapolis Center
12:56AM 39.1992 -83.9419 257° West 297 342 9,800 -2,400 Descending Indianapolis Center
12:56AM 39.1917 -83.9736 253° West 299 344 8,900 -2,700 Descending Indianapolis Center
12:57AM 39.1833 -84.0369 260° West 272 313 7,100 -2,820 Descending Indianapolis Center
12:57AM 39.1794 -84.0694 261° West 276 318 6,100 -2,820 Descending Indianapolis Center
12:58AM 39.1719 -84.1297 261° West 262 302 4,300 -1,920 Descending Indianapolis Center
12:58AM 39.1692 -84.1567 262° West 266 306 4,200 -240 Descending Indianapolis Center